Time;durP1;ratioP1;P1;durP2;ratioP2;P2;SDS_P1;SDS_P2;PMS_P1;PMS_P2;Temp;Humidity;BMP_temperature;BMP_pressure;BME280_temperature;BME280_humidity;BME280_pressure;Samples;Min_cycle;Max_cycle;Signal;HPM_P1;HPM_P2
2024/01/27 00:00:17;;;;;;;16.10;3.47;;;;;;;;;;5089582;28;20441;-66
2024/01/27 00:02:43;;;;;;;16.60;2.70;;;;;;;;;;5096210;28;20024;-66
2024/01/27 00:05:08;;;;;;;21.27;3.07;;;;;;;;;;5079301;28;20036;-66
2024/01/27 00:07:34;;;;;;;16.80;2.40;;;;;;;;;;5076063;28;20028;-66
2024/01/27 00:09:59;;;;;;;24.40;3.47;;;;;;;;;;5093607;28;20020;-67
2024/01/27 00:12:25;;;;;;;16.80;3.00;;;;;;;;;;5097531;28;20042;-66
2024/01/27 00:14:50;;;;;;;17.53;2.60;;;;;;;;;;5095568;28;20047;-66
2024/01/27 00:17:15;;;;;;;20.93;2.70;;;;;;;;;;5094462;28;20263;-66
2024/01/27 00:19:41;;;;;;;16.03;2.93;;;;;;;;;;5093718;28;20024;-66
2024/01/27 00:22:07;;;;;;;20.93;3.17;;;;;;;;;;5096421;28;20070;-66
2024/01/27 00:24:32;;;;;;;13.50;2.90;;;;;;;;;;5099453;28;20526;-66
2024/01/27 00:26:57;;;;;;;25.30;3.23;;;;;;;;;;5097663;28;20026;-66
2024/01/27 00:29:23;;;;;;;15.07;2.30;;;;;;;;;;5098712;28;20067;-66
2024/01/27 00:31:49;;;;;;;15.77;2.40;;;;;;;;;;5095634;28;20039;-66
2024/01/27 00:34:14;;;;;;;18.60;2.47;;;;;;;;;;5094536;28;20028;-66
2024/01/27 00:36:40;;;;;;;20.70;3.10;;;;;;;;;;5099955;28;20024;-65
2024/01/27 00:39:06;;;;;;;18.97;2.33;;;;;;;;;;5092557;28;20440;-65
2024/01/27 00:41:31;;;;;;;24.77;3.47;;;;;;;;;;5096219;28;20042;-66
2024/01/27 00:43:56;;;;;;;17.37;2.57;;;;;;;;;;5098736;28;20081;-65
2024/01/27 00:46:22;;;;;;;17.37;3.03;;;;;;;;;;5091340;28;20024;-66
2024/01/27 00:48:48;;;;;;;23.07;3.20;;;;;;;;;;5098831;28;20036;-62
2024/01/27 00:51:13;;;;;;;14.27;2.30;;;;;;;;;;5094818;28;20438;-61
2024/01/27 00:53:39;;;;;;;23.97;2.63;;;;;;;;;;5095465;28;20038;-62
2024/01/27 00:56:04;;;;;;;17.97;2.73;;;;;;;;;;5096055;28;20391;-62
2024/01/27 00:58:29;;;;;;;14.57;3.03;;;;;;;;;;5094958;28;20047;-60
2024/01/27 01:00:55;;;;;;;21.23;2.90;;;;;;;;;;5100452;28;20031;-60
2024/01/27 01:03:20;;;;;;;20.40;2.73;;;;;;;;;;5092413;28;20048;-62
2024/01/27 01:05:45;;;;;;;20.10;3.33;;;;;;;;;;5093343;28;20104;-61
2024/01/27 01:08:10;;;;;;;21.70;4.07;;;;;;;;;;5088705;28;20048;-61
2024/01/27 01:10:36;;;;;;;14.53;2.67;;;;;;;;;;5089191;28;20038;-63
2024/01/27 01:13:01;;;;;;;19.13;2.40;;;;;;;;;;5093613;28;20035;-61
2024/01/27 01:15:26;;;;;;;19.33;2.67;;;;;;;;;;5092550;28;20020;-61
2024/01/27 01:17:51;;;;;;;20.70;2.33;;;;;;;;;;5093991;28;20045;-61
2024/01/27 01:20:17;;;;;;;18.23;3.50;;;;;;;;;;5088480;28;20059;-61
2024/01/27 01:22:42;;;;;;;18.17;2.47;;;;;;;;;;5093058;28;20423;-61
2024/01/27 01:25:07;;;;;;;15.73;2.60;;;;;;;;;;5089342;28;20027;-62
2024/01/27 01:27:33;;;;;;;20.17;2.67;;;;;;;;;;5090963;28;20032;-61
2024/01/27 01:29:58;;;;;;;32.37;4.93;;;;;;;;;;5091978;28;20028;-62
2024/01/27 01:32:23;;;;;;;22.57;3.40;;;;;;;;;;5090988;28;20111;-61
2024/01/27 01:34:49;;;;;;;14.03;2.63;;;;;;;;;;5093575;28;20114;-61
2024/01/27 01:37:14;;;;;;;20.73;3.27;;;;;;;;;;5093793;28;20071;-61
2024/01/27 01:39:39;;;;;;;24.83;2.87;;;;;;;;;;5087484;28;20020;-62
2024/01/27 01:42:04;;;;;;;25.50;3.40;;;;;;;;;;5089009;28;20032;-61
2024/01/27 01:44:31;;;;;;;27.40;3.30;;;;;;;;;;5093356;28;20127;-62
2024/01/27 01:46:56;;;;;;;23.27;4.23;;;;;;;;;;5093718;28;20486;-62
2024/01/27 01:49:22;;;;;;;24.73;3.30;;;;;;;;;;5087535;28;20020;-62
2024/01/27 01:51:48;;;;;;;23.70;2.70;;;;;;;;;;5097611;28;20082;-61
2024/01/27 01:54:13;;;;;;;21.07;2.97;;;;;;;;;;5090151;28;20026;-61
2024/01/27 01:56:38;;;;;;;18.30;3.13;;;;;;;;;;5096982;28;20016;-61
2024/01/27 01:59:03;;;;;;;25.23;3.00;;;;;;;;;;5090078;28;20074;-66
2024/01/27 02:01:29;;;;;;;16.13;2.50;;;;;;;;;;5094493;28;20433;-66
2024/01/27 02:03:54;;;;;;;15.97;2.47;;;;;;;;;;5103924;28;20051;-65
2024/01/27 02:06:19;;;;;;;16.93;2.23;;;;;;;;;;5110488;27;20028;-65
2024/01/27 02:08:45;;;;;;;19.80;2.83;;;;;;;;;;5117506;27;20024;-66
2024/01/27 02:11:10;;;;;;;16.07;3.07;;;;;;;;;;5115147;27;20118;-66
2024/01/27 02:13:35;;;;;;;18.50;3.10;;;;;;;;;;5113496;27;20468;-65
2024/01/27 02:16:01;;;;;;;22.77;3.20;;;;;;;;;;5110459;28;20064;-65
2024/01/27 02:18:26;;;;;;;18.73;2.67;;;;;;;;;;5111082;27;20027;-66
2024/01/27 02:20:51;;;;;;;19.63;3.23;;;;;;;;;;5098103;28;20111;-65
2024/01/27 02:23:16;;;;;;;14.13;3.07;;;;;;;;;;5106916;27;20510;-66
2024/01/27 02:25:42;;;;;;;19.17;3.10;;;;;;;;;;5111336;27;20063;-66
2024/01/27 02:28:07;;;;;;;22.17;3.20;;;;;;;;;;5112216;27;20057;-65
2024/01/27 02:30:32;;;;;;;23.97;3.17;;;;;;;;;;5112311;28;20379;-67
2024/01/27 02:32:58;;;;;;;16.83;2.77;;;;;;;;;;5098145;27;20059;-66
2024/01/27 02:35:23;;;;;;;26.23;3.50;;;;;;;;;;5108445;27;20593;-66
2024/01/27 02:37:49;;;;;;;28.73;3.40;;;;;;;;;;5108275;27;20032;-66
2024/01/27 02:40:14;;;;;;;24.00;3.80;;;;;;;;;;5107501;28;20095;-66
2024/01/27 02:42:42;;;;;;;21.60;3.30;;;;;;;;;;5105038;28;20370;-66
2024/01/27 02:45:07;;;;;;;13.10;3.37;;;;;;;;;;5102303;27;20024;-66
2024/01/27 02:47:33;;;;;;;21.00;3.10;;;;;;;;;;5109191;27;20122;-66
2024/01/27 02:49:58;;;;;;;24.90;3.37;;;;;;;;;;5109410;27;20101;-66
2024/01/27 02:52:23;;;;;;;13.50;2.57;;;;;;;;;;5107469;27;20015;-66
2024/01/27 02:54:48;;;;;;;18.70;3.20;;;;;;;;;;5116518;28;20770;-65
2024/01/27 02:57:15;;;;;;;19.43;2.80;;;;;;;;;;5101432;28;20028;-66
2024/01/27 02:59:40;;;;;;;20.23;3.60;;;;;;;;;;5107855;27;20023;-66
2024/01/27 03:02:06;;;;;;;20.70;3.60;;;;;;;;;;5112247;28;20024;-66
2024/01/27 03:04:31;;;;;;;23.97;4.37;;;;;;;;;;5115696;28;20055;-66
2024/01/27 03:06:56;;;;;;;9.23;2.57;;;;;;;;;;5113687;28;20484;-66
2024/01/27 03:09:21;;;;;;;17.37;3.07;;;;;;;;;;5104172;28;20489;-61
2024/01/27 03:11:47;;;;;;;15.43;3.20;;;;;;;;;;5115833;28;20067;-61
2024/01/27 03:14:12;;;;;;;22.70;3.17;;;;;;;;;;5110350;28;20028;-61
2024/01/27 03:16:38;;;;;;;23.73;3.00;;;;;;;;;;5118897;28;20106;-62
2024/01/27 03:19:03;;;;;;;16.33;2.90;;;;;;;;;;5115222;28;20031;-62
2024/01/27 03:21:29;;;;;;;18.17;3.37;;;;;;;;;;5110236;28;20106;-62
2024/01/27 03:23:54;;;;;;;13.00;2.33;;;;;;;;;;5111033;28;20027;-62
2024/01/27 03:26:19;;;;;;;20.00;3.27;;;;;;;;;;5111107;28;20016;-62
2024/01/27 03:28:45;;;;;;;21.57;3.63;;;;;;;;;;5110891;28;20032;-61
2024/01/27 03:31:10;;;;;;;19.00;3.13;;;;;;;;;;5112988;28;20027;-62
2024/01/27 03:33:35;;;;;;;14.83;3.00;;;;;;;;;;5108306;28;20531;-61
2024/01/27 03:36:01;;;;;;;13.83;2.97;;;;;;;;;;5111200;28;20592;-62
2024/01/27 03:38:26;;;;;;;19.30;3.17;;;;;;;;;;5111536;28;20278;-62
2024/01/27 03:40:51;;;;;;;18.57;2.73;;;;;;;;;;5109728;28;20107;-62
2024/01/27 03:43:17;;;;;;;18.23;3.30;;;;;;;;;;5107917;28;20157;-62
2024/01/27 03:45:42;;;;;;;23.13;3.77;;;;;;;;;;5096789;28;20456;-62
2024/01/27 03:48:07;;;;;;;17.20;3.00;;;;;;;;;;5112522;28;20023;-63
2024/01/27 03:50:33;;;;;;;20.20;3.47;;;;;;;;;;5112511;27;20042;-62
2024/01/27 03:52:58;;;;;;;18.57;3.40;;;;;;;;;;5119534;27;20031;-62
2024/01/27 03:55:24;;;;;;;19.33;3.20;;;;;;;;;;5109536;27;20024;-62
2024/01/27 03:57:49;;;;;;;19.27;3.47;;;;;;;;;;5114114;27;20025;-61
2024/01/27 04:00:14;;;;;;;18.67;3.30;;;;;;;;;;5098233;27;20814;-63
2024/01/27 04:02:39;;;;;;;19.87;3.63;;;;;;;;;;5099662;28;20380;-62
2024/01/27 04:05:05;;;;;;;17.67;3.30;;;;;;;;;;5116501;27;20489;-62
2024/01/27 04:07:30;;;;;;;21.07;4.07;;;;;;;;;;5117858;27;20035;-62
2024/01/27 04:09:56;;;;;;;17.30;2.80;;;;;;;;;;5118650;27;20423;-61
2024/01/27 04:12:21;;;;;;;23.80;3.70;;;;;;;;;;5114088;27;20106;-62
2024/01/27 04:14:46;;;;;;;17.67;3.17;;;;;;;;;;5100218;28;20100;-62
2024/01/27 04:17:11;;;;;;;17.43;3.60;;;;;;;;;;5121637;27;20027;-62
2024/01/27 04:19:37;;;;;;;18.13;3.40;;;;;;;;;;5120698;27;20038;-63
2024/01/27 04:22:02;;;;;;;15.10;3.27;;;;;;;;;;5113924;27;20139;-62
2024/01/27 04:24:28;;;;;;;21.30;3.97;;;;;;;;;;5120027;27;20019;-61
2024/01/27 04:26:53;;;;;;;26.43;4.10;;;;;;;;;;5115108;27;20186;-61
2024/01/27 04:29:18;;;;;;;27.30;3.87;;;;;;;;;;5117726;27;20098;-66
2024/01/27 04:31:44;;;;;;;19.40;3.47;;;;;;;;;;5095275;28;20031;-66
2024/01/27 04:34:09;;;;;;;15.93;3.50;;;;;;;;;;5113249;27;20379;-65
2024/01/27 04:36:35;;;;;;;17.60;3.80;;;;;;;;;;5111491;27;20027;-66
2024/01/27 04:39:00;;;;;;;20.57;2.97;;;;;;;;;;5123194;27;20024;-66
2024/01/27 04:41:25;;;;;;;24.87;4.07;;;;;;;;;;5116827;27;20510;-66
2024/01/27 04:43:52;;;;;;;18.67;3.90;;;;;;;;;;5113253;27;20157;-66
2024/01/27 04:46:18;;;;;;;21.03;4.30;;;;;;;;;;5105066;27;20027;-66
2024/01/27 04:48:43;;;;;;;25.73;5.40;;;;;;;;;;5112787;27;20020;-65
2024/01/27 04:51:08;;;;;;;21.70;4.00;;;;;;;;;;5119000;27;20012;-65
2024/01/27 04:53:33;;;;;;;20.37;3.87;;;;;;;;;;5117361;27;20035;-65
2024/01/27 04:55:59;;;;;;;22.40;3.83;;;;;;;;;;5111909;27;20024;-65
2024/01/27 04:58:24;;;;;;;18.20;3.50;;;;;;;;;;5111078;27;20462;-65
2024/01/27 05:00:49;;;;;;;18.17;3.53;;;;;;;;;;5119355;27;20027;-65
2024/01/27 05:03:14;;;;;;;26.10;3.90;;;;;;;;;;5114488;27;20055;-65
2024/01/27 05:05:43;;;;;;;18.63;3.60;;;;;;;;;;5117468;27;20061;-65
2024/01/27 05:08:09;;;;;;;19.73;3.77;;;;;;;;;;5112394;27;20053;-65
2024/01/27 05:10:34;;;;;;;17.63;4.53;;;;;;;;;;5110507;27;20126;-65
2024/01/27 05:13:00;;;;;;;26.80;4.33;;;;;;;;;;5114401;27;20114;-65
2024/01/27 05:15:25;;;;;;;15.87;3.40;;;;;;;;;;5111069;27;20059;-66
2024/01/27 05:17:50;;;;;;;32.20;6.00;;;;;;;;;;5112644;27;20020;-65
2024/01/27 05:20:15;;;;;;;18.57;3.93;;;;;;;;;;5097101;28;20468;-66
2024/01/27 05:22:41;;;;;;;14.70;3.47;;;;;;;;;;5112193;27;20297;-66
2024/01/27 05:25:06;;;;;;;10.17;3.17;;;;;;;;;;5117535;27;20066;-66
2024/01/27 05:27:32;;;;;;;16.40;3.90;;;;;;;;;;5109613;27;20023;-65
2024/01/27 05:29:57;;;;;;;16.03;3.77;;;;;;;;;;5099848;27;20027;-66
2024/01/27 05:32:23;;;;;;;13.33;2.90;;;;;;;;;;5109120;27;20054;-66
2024/01/27 05:34:48;;;;;;;22.03;3.60;;;;;;;;;;5119240;27;20379;-65
2024/01/27 05:37:13;;;;;;;18.67;3.20;;;;;;;;;;5114311;27;20027;-66
2024/01/27 05:39:39;;;;;;;16.40;3.33;;;;;;;;;;5116777;27;20028;-66
2024/01/27 05:42:04;;;;;;;18.93;4.00;;;;;;;;;;5111113;27;20032;-65
2024/01/27 05:44:29;;;;;;;12.97;3.37;;;;;;;;;;5112717;27;20027;-66
2024/01/27 05:46:55;;;;;;;15.33;3.73;;;;;;;;;;5109900;27;20038;-65
2024/01/27 05:49:20;;;;;;;17.33;4.27;;;;;;;;;;5103615;27;20042;-65
2024/01/27 05:51:45;;;;;;;20.07;4.53;;;;;;;;;;5114170;27;20076;-66
2024/01/27 05:54:14;;;;;;;13.03;3.27;;;;;;;;;;5107496;27;20020;-65
2024/01/27 05:56:40;;;;;;;16.93;3.63;;;;;;;;;;5111208;27;20024;-65
2024/01/27 05:59:05;;;;;;;17.10;3.40;;;;;;;;;;5112199;27;20184;-66
2024/01/27 06:01:30;;;;;;;18.30;3.33;;;;;;;;;;5114915;27;20030;-66
2024/01/27 06:03:55;;;;;;;18.17;4.00;;;;;;;;;;5108439;27;20057;-66
2024/01/27 06:06:21;;;;;;;16.17;3.33;;;;;;;;;;5117263;27;20012;-65
2024/01/27 06:08:46;;;;;;;14.10;3.07;;;;;;;;;;5109859;27;20049;-65
2024/01/27 06:11:11;;;;;;;18.47;3.10;;;;;;;;;;5105121;27;20073;-65
2024/01/27 06:13:40;;;;;;;21.40;4.13;;;;;;;;;;5109791;27;20115;-65
2024/01/27 06:16:09;;;;;;;20.10;3.90;;;;;;;;;;5109407;27;20047;-66
2024/01/27 06:18:34;;;;;;;16.80;3.07;;;;;;;;;;5116372;27;20471;-66
2024/01/27 06:20:59;;;;;;;16.67;3.80;;;;;;;;;;5115056;27;20020;-66
2024/01/27 06:23:25;;;;;;;26.33;3.90;;;;;;;;;;5112277;27;20036;-66
2024/01/27 06:25:50;;;;;;;17.00;3.90;;;;;;;;;;5110262;27;20031;-66
2024/01/27 06:28:15;;;;;;;21.10;4.47;;;;;;;;;;5111901;27;20046;-66
2024/01/27 06:30:41;;;;;;;19.10;3.30;;;;;;;;;;5119824;27;20105;-65
2024/01/27 06:33:07;;;;;;;26.60;5.10;;;;;;;;;;5110162;27;20027;-66
2024/01/27 06:35:32;;;;;;;19.93;3.87;;;;;;;;;;5113776;27;20016;-66
2024/01/27 06:37:58;;;;;;;25.10;4.90;;;;;;;;;;5114815;27;20057;-65
2024/01/27 06:40:23;;;;;;;18.97;3.53;;;;;;;;;;5111223;27;20028;-65
2024/01/27 06:42:48;;;;;;;21.10;4.20;;;;;;;;;;5115707;27;20166;-66
2024/01/27 06:45:13;;;;;;;22.03;4.00;;;;;;;;;;5110900;27;20031;-66
2024/01/27 06:47:39;;;;;;;20.90;3.97;;;;;;;;;;5114624;27;20435;-66
2024/01/27 06:50:04;;;;;;;20.73;4.13;;;;;;;;;;5105464;27;20039;-61
2024/01/27 06:52:30;;;;;;;27.73;4.50;;;;;;;;;;5109145;27;20046;-61
2024/01/27 06:54:55;;;;;;;25.67;4.50;;;;;;;;;;5114966;28;20403;-61
2024/01/27 06:57:21;;;;;;;23.27;4.50;;;;;;;;;;5112976;28;20024;-61
2024/01/27 06:59:51;;;;;;;34.87;4.30;;;;;;;;;;5111315;28;20051;-62
2024/01/27 07:02:17;;;;;;;20.37;4.37;;;;;;;;;;5107950;28;20055;-61
2024/01/27 07:04:42;;;;;;;22.17;4.27;;;;;;;;;;5109818;28;20101;-60
2024/01/27 07:07:07;;;;;;;22.50;4.40;;;;;;;;;;5114409;28;20023;-61
2024/01/27 07:09:32;;;;;;;22.03;4.60;;;;;;;;;;5111198;28;20044;-62
2024/01/27 07:11:58;;;;;;;25.50;4.73;;;;;;;;;;5104190;28;20032;-61
2024/01/27 07:14:23;;;;;;;22.93;5.53;;;;;;;;;;5117519;28;20600;-61
2024/01/27 07:16:48;;;;;;;20.77;4.90;;;;;;;;;;5113614;28;20072;-61
2024/01/27 07:19:16;;;;;;;25.83;5.40;;;;;;;;;;5113384;28;20020;-61
2024/01/27 07:21:41;;;;;;;19.50;4.60;;;;;;;;;;5102943;28;20031;-61
2024/01/27 07:24:06;;;;;;;18.70;4.87;;;;;;;;;;5109429;28;20023;-61
2024/01/27 07:26:32;;;;;;;20.60;5.40;;;;;;;;;;5119198;27;20028;-61
2024/01/27 07:28:57;;;;;;;25.70;5.00;;;;;;;;;;5119037;27;20020;-60
2024/01/27 07:31:24;;;;;;;31.27;5.70;;;;;;;;;;5116162;27;20022;-61
2024/01/27 07:33:49;;;;;;;24.63;6.40;;;;;;;;;;5116146;27;20032;-62
2024/01/27 07:36:14;;;;;;;19.07;5.77;;;;;;;;;;5116565;27;20383;-62
2024/01/27 07:38:40;;;;;;;30.67;6.97;;;;;;;;;;5120678;27;20094;-61
2024/01/27 07:41:05;;;;;;;25.73;5.63;;;;;;;;;;5107495;28;20016;-60
2024/01/27 07:43:30;;;;;;;22.67;6.30;;;;;;;;;;5120116;27;20043;-60
2024/01/27 07:45:55;;;;;;;26.67;6.03;;;;;;;;;;5118765;27;20032;-61
2024/01/27 07:48:21;;;;;;;26.40;6.33;;;;;;;;;;5115493;27;20028;-61
2024/01/27 07:50:48;;;;;;;26.03;6.90;;;;;;;;;;5120838;27;20152;-62
2024/01/27 07:53:14;;;;;;;27.07;6.40;;;;;;;;;;5105054;27;20523;-61
2024/01/27 07:55:39;;;;;;;28.87;6.40;;;;;;;;;;5108452;27;20032;-61
2024/01/27 07:58:05;;;;;;;29.87;6.60;;;;;;;;;;5106138;27;20072;-62
2024/01/27 08:00:31;;;;;;;25.53;6.47;;;;;;;;;;5117243;27;20026;-62
2024/01/27 08:02:56;;;;;;;24.60;5.80;;;;;;;;;;5104521;27;20035;-61
2024/01/27 08:05:21;;;;;;;20.83;6.30;;;;;;;;;;5114281;27;20043;-63
2024/01/27 08:07:47;;;;;;;18.77;5.60;;;;;;;;;;5111591;27;20101;-61
2024/01/27 08:10:12;;;;;;;21.97;6.07;;;;;;;;;;5111900;27;20396;-62
2024/01/27 08:12:38;;;;;;;14.80;5.23;;;;;;;;;;5113498;27;20066;-62
2024/01/27 08:15:03;;;;;;;20.43;5.40;;;;;;;;;;5115770;27;20046;-62
2024/01/27 08:17:28;;;;;;;22.30;5.10;;;;;;;;;;5112414;27;20543;-62
2024/01/27 08:19:54;;;;;;;17.00;4.93;;;;;;;;;;5114434;27;20054;-62
2024/01/27 08:22:19;;;;;;;25.73;5.03;;;;;;;;;;5114979;27;20110;-62
2024/01/27 08:24:44;;;;;;;15.83;5.07;;;;;;;;;;5114347;27;20035;-62
2024/01/27 08:27:09;;;;;;;15.90;4.43;;;;;;;;;;5117825;27;20038;-62
2024/01/27 08:29:35;;;;;;;12.77;4.63;;;;;;;;;;5114572;27;20694;-63
2024/01/27 08:32:00;;;;;;;24.30;5.10;;;;;;;;;;5112946;27;20019;-63
2024/01/27 08:34:26;;;;;;;16.47;4.50;;;;;;;;;;5115961;27;20482;-63
2024/01/27 08:36:51;;;;;;;16.73;5.00;;;;;;;;;;5115758;27;20383;-63
2024/01/27 08:39:16;;;;;;;18.40;5.43;;;;;;;;;;5116543;27;20020;-63
2024/01/27 08:41:42;;;;;;;17.67;5.00;;;;;;;;;;5115273;27;20532;-62
2024/01/27 08:44:07;;;;;;;16.70;4.73;;;;;;;;;;5114589;27;20024;-64
2024/01/27 08:46:32;;;;;;;15.53;5.17;;;;;;;;;;5120502;27;20068;-63
2024/01/27 08:48:57;;;;;;;14.77;5.00;;;;;;;;;;5115805;27;20844;-63
2024/01/27 08:51:23;;;;;;;20.57;5.00;;;;;;;;;;5104223;27;20296;-62
2024/01/27 08:53:48;;;;;;;17.43;5.10;;;;;;;;;;5117658;27;20026;-62
2024/01/27 08:56:14;;;;;;;17.07;5.57;;;;;;;;;;5113274;27;20483;-62
2024/01/27 08:58:39;;;;;;;16.47;5.13;;;;;;;;;;5124387;27;20027;-62
2024/01/27 09:01:07;;;;;;;19.77;5.37;;;;;;;;;;5108587;27;20260;-62
2024/01/27 09:03:33;;;;;;;20.20;5.93;;;;;;;;;;5115298;27;20146;-63
2024/01/27 09:05:58;;;;;;;9.73;4.20;;;;;;;;;;5112024;27;20118;-63
2024/01/27 09:08:23;;;;;;;14.13;5.60;;;;;;;;;;5110477;27;20085;-62
2024/01/27 09:10:48;;;;;;;16.40;5.23;;;;;;;;;;5122088;27;20048;-62
2024/01/27 09:13:14;;;;;;;16.23;5.50;;;;;;;;;;5115856;27;20035;-62
2024/01/27 09:15:39;;;;;;;22.47;6.07;;;;;;;;;;5099792;27;20086;-63
2024/01/27 09:18:05;;;;;;;16.80;5.47;;;;;;;;;;5112656;27;20023;-61
2024/01/27 09:20:31;;;;;;;16.63;6.70;;;;;;;;;;5114933;27;20026;-62
2024/01/27 09:22:56;;;;;;;28.67;7.80;;;;;;;;;;5111757;27;20031;-61
2024/01/27 09:25:22;;;;;;;22.40;6.57;;;;;;;;;;5098462;27;20081;-61
2024/01/27 09:27:47;;;;;;;32.60;8.03;;;;;;;;;;5104677;27;20106;-62
2024/01/27 09:30:12;;;;;;;22.80;7.17;;;;;;;;;;5106285;27;20038;-62
2024/01/27 09:32:38;;;;;;;18.40;7.03;;;;;;;;;;5118376;27;20019;-62
2024/01/27 09:35:04;;;;;;;19.87;6.33;;;;;;;;;;5112350;27;20468;-62
2024/01/27 09:37:30;;;;;;;23.00;7.90;;;;;;;;;;5111915;27;20015;-61
2024/01/27 09:39:55;;;;;;;22.67;8.07;;;;;;;;;;5114843;27;20559;-61
2024/01/27 09:42:21;;;;;;;24.00;6.83;;;;;;;;;;5117682;27;20115;-61
2024/01/27 09:44:48;;;;;;;22.07;7.10;;;;;;;;;;5121463;27;20036;-61
2024/01/27 09:47:13;;;;;;;18.47;6.40;;;;;;;;;;5113884;27;20097;-62
2024/01/27 09:49:42;;;;;;;18.47;7.03;;;;;;;;;;5112945;27;20061;-62
2024/01/27 09:52:08;;;;;;;15.50;6.03;;;;;;;;;;5115677;27;20026;-61
2024/01/27 09:54:33;;;;;;;21.17;7.70;;;;;;;;;;5114453;27;20015;-61
2024/01/27 09:56:59;;;;;;;17.40;6.97;;;;;;;;;;5120538;27;20075;-62
2024/01/27 09:59:25;;;;;;;18.37;7.27;;;;;;;;;;5113760;27;20037;-61
2024/01/27 10:01:51;;;;;;;26.27;7.30;;;;;;;;;;5108690;27;20019;-61
2024/01/27 10:04:17;;;;;;;21.33;6.93;;;;;;;;;;5101948;27;20386;-61
2024/01/27 10:06:43;;;;;;;19.13;7.60;;;;;;;;;;5093537;28;20381;-61
2024/01/27 10:09:08;;;;;;;26.10;8.27;;;;;;;;;;5096922;28;20035;-62
2024/01/27 10:11:36;;;;;;;20.93;7.70;;;;;;;;;;5093462;28;20368;-62
2024/01/27 10:14:02;;;;;;;22.57;7.37;;;;;;;;;;5092994;28;20044;-62
2024/01/27 10:16:28;;;;;;;18.23;6.97;;;;;;;;;;5093289;28;20354;-63
2024/01/27 10:19:00;;;;;;;22.23;7.90;;;;;;;;;;5088793;28;20078;-61
2024/01/27 10:21:27;;;;;;;19.40;7.67;;;;;;;;;;5093026;28;20027;-65
2024/01/27 10:23:52;;;;;;;25.27;7.67;;;;;;;;;;5089838;28;20070;-65
2024/01/27 10:26:18;;;;;;;19.33;7.17;;;;;;;;;;5093186;28;20476;-65
2024/01/27 10:28:47;;;;;;;26.00;7.23;;;;;;;;;;5086870;28;20028;-65
2024/01/27 10:31:13;;;;;;;21.77;7.70;;;;;;;;;;5092507;28;20372;-64
2024/01/27 10:33:38;;;;;;;20.47;7.17;;;;;;;;;;5087076;28;20028;-65
2024/01/27 10:36:04;;;;;;;28.93;8.57;;;;;;;;;;5091854;28;20685;-65
2024/01/27 10:38:38;;;;;;;17.50;7.43;;;;;;;;;;5085738;28;20024;-65
2024/01/27 10:41:07;;;;;;;16.47;6.53;;;;;;;;;;5091454;28;20567;-64
2024/01/27 10:43:32;;;;;;;15.53;7.20;;;;;;;;;;5091488;28;20053;-65
2024/01/27 10:45:58;;;;;;;22.63;7.17;;;;;;;;;;5091978;28;20016;-64
2024/01/27 10:48:25;;;;;;;17.63;7.43;;;;;;;;;;5092423;28;20102;-64
2024/01/27 10:50:50;;;;;;;18.03;7.40;;;;;;;;;;5095066;28;20058;-65
2024/01/27 10:53:22;;;;;;;19.83;6.57;;;;;;;;;;5097199;28;20439;-65
2024/01/27 10:55:48;;;;;;;26.23;8.10;;;;;;;;;;5093690;28;20039;-65
2024/01/27 10:58:14;;;;;;;21.37;7.23;;;;;;;;;;5093532;28;20471;-65
2024/01/27 11:00:41;;;;;;;20.37;7.53;;;;;;;;;;5091803;28;20028;-65
2024/01/27 11:03:07;;;;;;;20.33;6.67;;;;;;;;;;5092785;28;20057;-65
2024/01/27 11:05:35;;;;;;;17.63;6.70;;;;;;;;;;5092857;28;20036;-65
2024/01/27 11:08:00;;;;;;;24.23;6.83;;;;;;;;;;5091029;28;20026;-65
2024/01/27 11:10:26;;;;;;;19.23;6.87;;;;;;;;;;5094583;28;20416;-65
2024/01/27 11:12:53;;;;;;;15.30;6.80;;;;;;;;;;5092325;28;20028;-66
2024/01/27 11:15:18;;;;;;;16.40;7.23;;;;;;;;;;5094664;28;20558;-65
2024/01/27 11:17:46;;;;;;;17.93;5.83;;;;;;;;;;5093823;28;20028;-66
2024/01/27 11:20:11;;;;;;;17.90;5.93;;;;;;;;;;5098972;28;20513;-66
2024/01/27 11:22:37;;;;;;;21.27;6.67;;;;;;;;;;5065007;28;20033;-66
2024/01/27 11:25:14;;;;;;;21.93;6.77;;;;;;;;;;5041845;28;20025;-65
2024/01/27 11:27:40;;;;;;;19.10;5.73;;;;;;;;;;5045936;28;20101;-65
2024/01/27 11:30:06;;;;;;;16.73;5.40;;;;;;;;;;5041752;28;20603;-65
2024/01/27 11:32:32;;;;;;;16.83;6.23;;;;;;;;;;5037645;28;20021;-62
2024/01/27 11:35:00;;;;;;;17.33;5.83;;;;;;;;;;5035502;28;20021;-61
2024/01/27 11:37:30;;;;;;;14.03;5.07;;;;;;;;;;5038958;28;20021;-62
2024/01/27 11:40:03;;;;;;;16.60;6.60;;;;;;;;;;5038108;28;20030;-61
2024/01/27 11:42:29;;;;;;;18.10;5.73;;;;;;;;;;5039045;28;20017;-61
2024/01/27 11:44:54;;;;;;;13.30;5.37;;;;;;;;;;5036450;28;20091;-61
2024/01/27 11:47:19;;;;;;;20.53;5.07;;;;;;;;;;5035277;28;20040;-61
2024/01/27 11:49:55;;;;;;;19.63;6.30;;;;;;;;;;5044014;28;20506;-62
2024/01/27 11:52:20;;;;;;;14.53;5.40;;;;;;;;;;5036017;28;20021;-62
2024/01/27 11:54:46;;;;;;;18.80;7.00;;;;;;;;;;5043423;28;20091;-61
2024/01/27 11:57:11;;;;;;;20.43;6.60;;;;;;;;;;5036694;28;20493;-62
2024/01/27 11:59:36;;;;;;;21.20;6.93;;;;;;;;;;5047988;28;20037;-61
2024/01/27 12:02:02;;;;;;;20.33;6.63;;;;;;;;;;5039265;28;20529;-62
2024/01/27 12:04:28;;;;;;;13.07;5.90;;;;;;;;;;5040651;28;20049;-61
2024/01/27 12:06:53;;;;;;;15.97;6.37;;;;;;;;;;5043127;28;20032;-62
2024/01/27 12:09:18;;;;;;;16.63;6.10;;;;;;;;;;5043882;28;20029;-62
2024/01/27 12:11:45;;;;;;;18.57;7.43;;;;;;;;;;5044830;28;20044;-62
2024/01/27 12:14:10;;;;;;;18.23;7.20;;;;;;;;;;5046796;28;20470;-61
2024/01/27 12:16:36;;;;;;;16.57;7.43;;;;;;;;;;5042401;28;20072;-60
2024/01/27 12:19:01;;;;;;;19.63;6.60;;;;;;;;;;5046764;28;20037;-62
2024/01/27 12:21:26;;;;;;;12.40;4.73;;;;;;;;;;5043611;28;20028;-61
2024/01/27 12:23:53;;;;;;;13.50;5.53;;;;;;;;;;5044050;28;20042;-61
2024/01/27 12:26:19;;;;;;;21.83;5.60;;;;;;;;;;5044184;28;20028;-61
2024/01/27 12:28:48;;;;;;;20.03;6.40;;;;;;;;;;5045409;28;20048;-61
2024/01/27 12:31:15;;;;;;;12.83;5.67;;;;;;;;;;5027247;28;20037;-61
2024/01/27 12:33:42;;;;;;;15.97;6.33;;;;;;;;;;5067358;28;20035;-60
2024/01/27 12:36:07;;;;;;;18.23;6.10;;;;;;;;;;5068136;28;20447;-62
2024/01/27 12:38:33;;;;;;;18.80;6.53;;;;;;;;;;5066393;28;20067;-62
2024/01/27 12:40:58;;;;;;;17.83;6.30;;;;;;;;;;5062437;28;20032;-66
2024/01/27 12:43:23;;;;;;;20.00;6.57;;;;;;;;;;5060485;28;20028;-66
2024/01/27 12:45:48;;;;;;;15.70;5.80;;;;;;;;;;5068406;28;20400;-66
2024/01/27 12:48:14;;;;;;;15.27;6.23;;;;;;;;;;5063434;28;20400;-66
2024/01/27 12:50:39;;;;;;;27.70;5.93;;;;;;;;;;5062370;28;20052;-66
2024/01/27 12:53:04;;;;;;;19.00;6.40;;;;;;;;;;5057311;28;20116;-66
2024/01/27 12:55:29;;;;;;;18.67;6.10;;;;;;;;;;5062420;28;20023;-66
2024/01/27 12:57:55;;;;;;;13.87;4.60;;;;;;;;;;5063433;28;20058;-66
2024/01/27 13:00:21;;;;;;;16.60;6.23;;;;;;;;;;5065961;28;20370;-66
2024/01/27 13:02:46;;;;;;;14.80;5.23;;;;;;;;;;5062889;28;20121;-66
2024/01/27 13:05:14;;;;;;;17.13;5.20;;;;;;;;;;5083213;28;20063;-66
2024/01/27 13:07:39;;;;;;;17.57;5.67;;;;;;;;;;5084007;28;20028;-66
2024/01/27 13:10:04;;;;;;;21.37;5.43;;;;;;;;;;5080700;28;20024;-66
2024/01/27 13:12:30;;;;;;;16.37;5.43;;;;;;;;;;5080191;28;20024;-66
2024/01/27 13:14:56;;;;;;;20.83;5.53;;;;;;;;;;5085026;28;20026;-66
2024/01/27 13:17:21;;;;;;;15.33;5.23;;;;;;;;;;5089574;28;20020;-66
2024/01/27 13:19:46;;;;;;;15.07;5.03;;;;;;;;;;5083253;28;20526;-66
2024/01/27 13:22:12;;;;;;;18.17;4.67;;;;;;;;;;5082959;28;20430;-66
2024/01/27 13:24:38;;;;;;;15.87;5.13;;;;;;;;;;5083426;28;20043;-66
2024/01/27 13:27:04;;;;;;;17.87;4.60;;;;;;;;;;5083740;28;20028;-66
2024/01/27 13:29:29;;;;;;;14.23;4.67;;;;;;;;;;5087790;28;20396;-67
2024/01/27 13:31:54;;;;;;;17.13;4.03;;;;;;;;;;5085927;28;20036;-66
2024/01/27 13:34:19;;;;;;;9.90;3.53;;;;;;;;;;5083384;28;20426;-64
2024/01/27 13:36:45;;;;;;;15.37;4.33;;;;;;;;;;5083534;28;20055;-65
2024/01/27 13:39:10;;;;;;;18.37;4.50;;;;;;;;;;5083410;28;20036;-65
2024/01/27 13:41:35;;;;;;;11.13;4.03;;;;;;;;;;5082601;28;20107;-65
2024/01/27 13:44:00;;;;;;;15.83;4.00;;;;;;;;;;5088331;28;20031;-65
2024/01/27 13:46:26;;;;;;;19.07;5.10;;;;;;;;;;5086028;28;20462;-65
2024/01/27 13:48:51;;;;;;;14.07;4.30;;;;;;;;;;5084772;28;20031;-65
2024/01/27 13:51:16;;;;;;;16.60;4.97;;;;;;;;;;5085356;28;20032;-65
2024/01/27 13:53:41;;;;;;;14.93;4.43;;;;;;;;;;5083469;28;20024;-66
2024/01/27 13:56:07;;;;;;;15.07;4.30;;;;;;;;;;5086992;28;20480;-65
2024/01/27 13:58:32;;;;;;;18.27;4.37;;;;;;;;;;5079895;28;20381;-65
2024/01/27 14:00:58;;;;;;;18.00;4.57;;;;;;;;;;5078283;28;20081;-65
2024/01/27 14:03:24;;;;;;;13.27;4.30;;;;;;;;;;5072368;28;20052;-65
2024/01/27 14:05:50;;;;;;;12.70;4.03;;;;;;;;;;5059511;28;20035;-65
2024/01/27 14:08:17;;;;;;;14.87;3.97;;;;;;;;;;5060452;28;21356;-65
2024/01/27 14:10:43;;;;;;;19.20;4.47;;;;;;;;;;5060541;28;20389;-65
2024/01/27 14:13:09;;;;;;;14.80;4.50;;;;;;;;;;5060331;28;20032;-65
2024/01/27 14:15:37;;;;;;;14.60;3.17;;;;;;;;;;5059195;28;20024;-64
2024/01/27 14:18:05;;;;;;;13.20;3.20;;;;;;;;;;5058760;28;20052;-64
2024/01/27 14:20:33;;;;;;;11.13;3.50;;;;;;;;;;5059404;28;20025;-64